createdAt,value
2018-12-30T00:02:24.165Z,42.25
2018-12-30T00:04:58.137Z,45.80
2018-12-30T00:07:32.234Z,49.00
2018-12-30T00:10:05.816Z,47.30
2018-12-30T00:12:39.071Z,42.70
2018-12-30T00:15:12.590Z,42.87
2018-12-30T00:17:46.389Z,41.03
2018-12-30T00:20:17.690Z,40.33
2018-12-30T00:22:50.847Z,40.57
2018-12-30T00:25:25.452Z,39.33
2018-12-30T00:27:57.687Z,37.27
2018-12-30T00:30:31.392Z,40.83
2018-12-30T00:33:05.386Z,42.57
2018-12-30T00:35:38.388Z,38.40
2018-12-30T00:38:12.477Z,36.90
2018-12-30T00:40:46.027Z,39.07
2018-12-30T00:43:17.416Z,38.30
2018-12-30T00:45:50.464Z,35.43
2018-12-30T00:48:24.355Z,36.50
2018-12-30T00:50:57.320Z,41.00
2018-12-30T00:53:32.606Z,29.00
2018-12-30T00:56:05.442Z,30.13
2018-12-30T00:58:40.114Z,35.03
2018-12-30T01:01:13.490Z,36.90
2018-12-30T01:03:47.150Z,36.87
2018-12-30T01:06:18.470Z,29.23
2018-12-30T01:08:51.454Z,37.27
2018-12-30T01:11:24.514Z,32.63
2018-12-30T01:13:55.813Z,37.30
2018-12-30T01:16:30.473Z,36.60
2018-12-30T01:19:02.447Z,34.10
2018-12-30T01:21:36.637Z,39.50
2018-12-30T01:24:08.509Z,36.90
2018-12-30T01:26:40.571Z,41.30
2018-12-30T01:29:13.074Z,36.70
2018-12-30T01:31:44.601Z,39.55
2018-12-30T01:34:17.633Z,41.80
2018-12-30T01:36:53.237Z,39.00
2018-12-30T01:39:24.539Z,41.23
2018-12-30T01:41:56.554Z,37.00
2018-12-30T01:44:27.845Z,38.17
2018-12-30T01:47:01.696Z,34.70
2018-12-30T01:49:34.695Z,31.67
2018-12-30T01:52:05.949Z,40.07
2018-12-30T01:54:38.720Z,34.07
2018-12-30T01:57:12.761Z,40.40
2018-12-30T01:59:46.840Z,43.25
2018-12-30T02:02:18.279Z,41.25
2018-12-30T02:04:50.766Z,38.53
2018-12-30T02:07:24.797Z,45.80
2018-12-30T02:09:56.226Z,40.28
2018-12-30T02:12:29.817Z,42.70
2018-12-30T02:15:02.824Z,44.30
2018-12-30T02:17:36.791Z,44.03
2018-12-30T02:20:09.878Z,45.90
2018-12-30T02:22:45.481Z,44.60
2018-12-30T02:25:16.744Z,48.30
2018-12-30T02:27:50.809Z,40.30
2018-12-30T02:30:24.040Z,42.60
2018-12-30T02:33:00.503Z,43.92
2018-12-30T02:35:31.897Z,43.50
2018-12-30T02:38:04.990Z,41.87
2018-12-30T02:40:39.253Z,41.70
2018-12-30T02:43:12.577Z,42.62
2018-12-30T02:45:45.915Z,42.40
2018-12-30T02:48:18.027Z,52.23
2018-12-30T02:50:49.929Z,43.77
2018-12-30T02:53:23.853Z,45.60
2018-12-30T02:55:56.919Z,40.20
2018-12-30T02:58:29.919Z,43.47
2018-12-30T03:01:02.136Z,42.67
2018-12-30T03:03:34.969Z,39.93
2018-12-30T03:06:08.989Z,38.57
2018-12-30T03:08:44.940Z,37.10
2018-12-30T03:11:17.904Z,45.90
2018-12-30T03:13:50.099Z,35.67
2018-12-30T03:16:24.068Z,39.50
2018-12-30T03:18:57.761Z,41.40
2018-12-30T03:21:31.214Z,39.67
2018-12-30T03:24:06.890Z,36.70
2018-12-30T03:26:41.142Z,33.13
2018-12-30T03:29:15.034Z,37.67
2018-12-30T03:31:46.324Z,28.03
2018-12-30T03:34:17.992Z,32.00
2018-12-30T03:36:51.982Z,34.97
2018-12-30T03:39:24.068Z,35.17
2018-12-30T03:41:57.304Z,37.33
2018-12-30T03:44:30.204Z,39.47
2018-12-30T03:47:02.211Z,34.90
2018-12-30T03:49:34.183Z,37.33
2018-12-30T03:52:08.609Z,34.93
2018-12-30T03:54:40.142Z,39.37
2018-12-30T03:57:13.858Z,36.60
2018-12-30T03:59:46.266Z,38.15
2018-12-30T04:02:17.885Z,39.42
2018-12-30T04:04:50.181Z,36.60
2018-12-30T04:07:25.711Z,36.10
2018-12-30T04:09:57.355Z,35.00
2018-12-30T04:12:29.327Z,32.57
2018-12-30T04:15:03.456Z,42.20
2018-12-30T04:17:36.532Z,43.10
2018-12-30T04:20:10.437Z,35.57
2018-12-30T04:22:42.384Z,35.53
2018-12-30T04:25:14.548Z,34.20
2018-12-30T04:27:45.966Z,33.90
2018-12-30T04:30:18.169Z,34.40
2018-12-30T04:32:50.267Z,32.77
2018-12-30T04:35:24.406Z,34.63
2018-12-30T04:37:57.439Z,31.73
2018-12-30T04:40:31.895Z,31.87
2018-12-30T04:43:04.503Z,33.07
2018-12-30T04:45:38.576Z,33.97
2018-12-30T04:48:11.575Z,32.90
2018-12-30T04:50:47.142Z,30.17
2018-12-30T04:53:18.533Z,34.25
2018-12-30T04:55:51.457Z,33.33
2018-12-30T04:58:23.612Z,39.13
2018-12-30T05:00:56.392Z,38.13
2018-12-30T05:03:32.576Z,39.83
2018-12-30T05:06:04.460Z,35.20
2018-12-30T05:08:37.582Z,34.50
2018-12-30T05:11:12.602Z,34.54
2018-12-30T05:13:45.799Z,34.13
2018-12-30T05:16:18.278Z,32.13
2018-12-30T05:18:50.174Z,33.60
2018-12-30T05:21:21.772Z,36.38
2018-12-30T05:23:54.775Z,31.90
2018-12-30T05:26:29.221Z,34.87
2018-12-30T05:29:01.605Z,32.13
2018-12-30T05:31:33.067Z,34.10
2018-12-30T05:34:06.590Z,31.37
2018-12-30T05:36:40.640Z,30.23
2018-12-30T05:39:16.187Z,30.13
2018-12-30T05:41:48.680Z,29.13
2018-12-30T05:44:21.761Z,32.10
2018-12-30T05:46:55.659Z,30.73
2018-12-30T05:49:28.590Z,27.98
2018-12-30T05:52:02.702Z,28.00
2018-12-30T05:54:35.849Z,25.50
2018-12-30T05:57:09.832Z,31.20
2018-12-30T05:59:43.578Z,23.07
2018-12-30T06:02:16.683Z,25.95
2018-12-30T06:04:50.819Z,26.13
2018-12-30T06:07:26.656Z,31.20
2018-12-30T06:10:00.163Z,23.57
2018-12-30T06:12:31.704Z,27.00
2018-12-30T06:15:06.594Z,24.47
2018-12-30T06:17:40.038Z,20.60
2018-12-30T06:20:12.905Z,23.27
2018-12-30T06:22:49.690Z,24.60
2018-12-30T06:25:23.914Z,28.43
2018-12-30T06:27:57.090Z,25.13
2018-12-30T06:30:30.347Z,24.20
2018-12-30T06:33:01.900Z,26.55
2018-12-30T06:35:35.873Z,23.53
2018-12-30T06:38:07.161Z,26.10
2018-12-30T06:40:40.866Z,21.20
2018-12-30T06:43:14.437Z,28.60
2018-12-30T06:45:47.956Z,24.47
2018-12-30T06:48:21.233Z,31.00
2018-12-30T06:50:55.096Z,21.20
2018-12-30T06:53:29.337Z,22.27
2018-12-30T06:56:02.730Z,23.23
2018-12-30T06:58:36.755Z,26.10
2018-12-30T07:01:10.157Z,23.47
2018-12-30T07:03:44.058Z,21.00
2018-12-30T07:06:17.035Z,44.90
2018-12-30T07:08:49.992Z,24.20
2018-12-30T07:11:21.956Z,33.77
2018-12-30T07:13:55.055Z,35.43
2018-12-30T07:16:28.110Z,28.37
2018-12-30T07:19:05.000Z,44.67
2018-12-30T07:21:37.151Z,28.80
2018-12-30T07:24:08.504Z,44.33
2018-12-30T07:26:40.372Z,18.73
2018-12-30T07:29:13.077Z,78.75
2018-12-30T07:31:45.196Z,28.63
2018-12-30T07:34:18.422Z,23.73
2018-12-30T07:36:50.202Z,30.73
2018-12-30T07:39:23.835Z,115.67
2018-12-30T07:41:55.150Z,23.63
2018-12-30T07:44:29.463Z,41.97
2018-12-30T07:47:02.880Z,32.90
2018-12-30T07:49:35.437Z,35.30
2018-12-30T07:52:07.442Z,85.57
2018-12-30T07:54:39.164Z,18.30
2018-12-30T07:57:13.644Z,18.13
2018-12-30T07:59:45.151Z,15.87
2018-12-30T08:02:17.339Z,27.80
2018-12-30T08:04:49.380Z,13.37
2018-12-30T08:07:21.367Z,19.87
2018-12-30T08:09:55.788Z,12.27
2018-12-30T08:12:27.349Z,14.47
2018-12-30T08:14:59.255Z,12.43
2018-12-30T08:17:33.291Z,12.37
2018-12-30T08:20:05.239Z,23.60
2018-12-30T08:22:38.587Z,13.67
2018-12-30T08:25:12.263Z,16.67
2018-12-30T08:27:45.939Z,11.73
2018-12-30T08:30:18.378Z,11.93
2018-12-30T08:32:50.435Z,10.53
2018-12-30T08:35:24.195Z,13.60
2018-12-30T08:37:57.541Z,13.17
2018-12-30T08:40:32.212Z,10.23
2018-12-30T08:43:06.998Z,10.60
2018-12-30T08:45:38.660Z,11.13
2018-12-30T08:48:12.612Z,9.60
2018-12-30T08:50:43.957Z,12.70
2018-12-30T08:53:17.490Z,8.40
2018-12-30T08:55:50.458Z,9.10
2018-12-30T08:58:25.081Z,9.07
2018-12-30T09:00:58.110Z,7.60
2018-12-30T09:03:30.760Z,8.07
2018-12-30T09:06:02.162Z,8.20
2018-12-30T09:08:35.631Z,7.70
2018-12-30T09:11:09.958Z,8.00
2018-12-30T09:13:45.425Z,7.37
2018-12-30T09:16:18.522Z,7.27
2018-12-30T09:18:50.280Z,9.77
2018-12-30T09:21:23.748Z,13.30
2018-12-30T09:23:57.577Z,18.70
2018-12-30T09:26:32.004Z,32.00
2018-12-30T09:29:04.880Z,44.87
2018-12-30T09:34:35.337Z,31.50
2018-12-30T09:37:10.270Z,8.10
2018-12-30T09:39:43.953Z,6.70
2018-12-30T09:42:17.952Z,9.60
2018-12-30T09:44:51.992Z,6.37
2018-12-30T09:47:24.814Z,6.10
2018-12-30T09:49:58.831Z,5.93
2018-12-30T09:52:32.795Z,5.13
2018-12-30T09:55:05.829Z,6.20
2018-12-30T09:57:41.385Z,6.40
2018-12-30T10:00:13.872Z,5.13
2018-12-30T10:02:49.217Z,6.50
2018-12-30T10:05:21.816Z,6.07
2018-12-30T10:07:53.829Z,6.83
2018-12-30T10:10:27.879Z,6.03
2018-12-30T10:13:02.035Z,4.80
2018-12-30T10:15:35.232Z,5.10
2018-12-30T10:18:07.872Z,6.03
2018-12-30T10:20:43.492Z,5.93
2018-12-30T10:23:15.979Z,5.37
2018-12-30T10:25:49.443Z,9.93
2018-12-30T10:28:21.925Z,5.53
2018-12-30T10:30:53.398Z,6.77
2018-12-30T10:33:27.119Z,93.58
2018-12-30T10:36:04.766Z,10.17
2018-12-30T10:38:36.936Z,22.70
2018-12-30T10:41:16.003Z,25.07
2018-12-30T10:43:50.026Z,9.40
2018-12-30T10:46:22.177Z,5.40
2018-12-30T10:48:55.069Z,9.30
2018-12-30T10:51:28.335Z,9.50
2018-12-30T10:54:00.742Z,6.17
2018-12-30T10:56:33.006Z,4.53
2018-12-30T10:59:10.668Z,15.00
2018-12-30T11:01:44.560Z,6.13
2018-12-30T11:04:18.741Z,6.30
2018-12-30T11:06:52.393Z,8.07
2018-12-30T11:09:25.218Z,8.15
2018-12-30T11:11:59.249Z,7.60
2018-12-30T11:14:32.070Z,6.90
2018-12-30T11:17:06.117Z,7.40
2018-12-30T11:19:39.194Z,8.70
2018-12-30T11:22:13.067Z,7.43
2018-12-30T11:24:46.513Z,7.20
2018-12-30T11:27:18.733Z,8.18
2018-12-30T11:29:52.154Z,7.87
2018-12-30T11:32:24.985Z,8.20
2018-12-30T11:34:59.922Z,10.07
2018-12-30T11:37:32.387Z,10.63
2018-12-30T11:40:07.078Z,7.90
2018-12-30T11:42:40.680Z,7.93
2018-12-30T11:45:13.408Z,10.57
2018-12-30T11:47:48.961Z,9.00
2018-12-30T11:50:22.406Z,9.70
2018-12-30T11:52:54.339Z,9.63
2018-12-30T11:55:28.436Z,10.32
2018-12-30T11:58:01.401Z,9.60
2018-12-30T12:00:32.728Z,13.50
2018-12-30T12:03:06.789Z,8.60
2018-12-30T12:05:40.383Z,9.43
2018-12-30T12:08:28.417Z,9.07
2018-12-30T12:11:06.952Z,9.67
2018-12-30T12:13:40.548Z,9.10
2018-12-30T12:16:13.536Z,9.83
2018-12-30T12:18:44.996Z,8.77
2018-12-30T12:21:17.407Z,8.90
2018-12-30T12:23:51.512Z,7.90
2018-12-30T12:26:23.918Z,7.77
2018-12-30T12:28:55.553Z,9.10
2018-12-30T12:31:29.575Z,10.68
2018-12-30T12:34:01.763Z,17.20
2018-12-30T12:36:33.676Z,23.20
2018-12-30T12:39:08.650Z,12.17
2018-12-30T12:41:40.572Z,16.83
2018-12-30T12:44:14.465Z,19.20
2018-12-30T12:46:49.103Z,11.17
2018-12-30T12:49:24.870Z,68.25
2018-12-30T12:51:58.579Z,26.83
2018-12-30T12:54:32.312Z,28.97
2018-12-30T12:57:06.096Z,10.40
2018-12-30T12:59:39.967Z,16.93
2018-12-30T13:02:14.778Z,16.80
2018-12-30T13:04:47.773Z,18.80
2018-12-30T13:07:19.247Z,13.05
2018-12-30T13:09:51.809Z,31.10
2018-12-30T13:12:23.103Z,23.20
2018-12-30T13:14:56.723Z,7.77
2018-12-30T13:17:34.359Z,18.05
2018-12-30T13:20:07.722Z,16.93
2018-12-30T13:22:44.051Z,21.63
2018-12-30T13:25:20.613Z,28.95
2018-12-30T13:27:56.550Z,9.30
2018-12-30T13:30:29.870Z,9.13
2018-12-30T13:33:01.722Z,8.13
2018-12-30T13:35:44.090Z,14.25
2018-12-30T13:38:17.703Z,14.90
2018-12-30T13:40:52.943Z,11.10
2018-12-30T13:43:26.683Z,7.63
2018-12-30T13:45:58.787Z,13.80
2018-12-30T13:48:32.262Z,10.27
2018-12-30T13:51:08.297Z,11.23
2018-12-30T13:53:39.844Z,7.97
2018-12-30T13:56:16.147Z,15.03
2018-12-30T13:58:50.929Z,11.37
2018-12-30T14:01:24.136Z,20.40
2018-12-30T14:03:57.857Z,9.87
2018-12-30T14:06:31.812Z,7.60
2018-12-30T14:09:07.999Z,9.40
2018-12-30T14:11:40.027Z,17.43
2018-12-30T14:14:13.102Z,8.70
2018-12-30T14:16:48.252Z,10.87
2018-12-30T14:19:19.599Z,9.90
2018-12-30T14:21:51.864Z,8.70
2018-12-30T14:24:31.372Z,13.13
2018-12-30T14:27:06.671Z,9.43
2018-12-30T14:29:40.102Z,3.93
2018-12-30T14:32:13.279Z,8.33
2018-12-30T14:34:45.565Z,4.80
2018-12-30T14:37:18.854Z,6.25
2018-12-30T14:39:53.176Z,7.10
2018-12-30T14:42:25.095Z,7.93
2018-12-30T14:44:57.048Z,16.03
2018-12-30T14:47:31.122Z,12.23
2018-12-30T14:50:04.218Z,13.47
2018-12-30T14:52:38.010Z,6.03
2018-12-30T14:55:12.951Z,14.80
2018-12-30T14:57:45.180Z,5.63
2018-12-30T15:00:19.084Z,18.23
2018-12-30T15:02:54.625Z,13.20
2018-12-30T15:05:27.126Z,11.93
2018-12-30T15:08:00.081Z,19.33
2018-12-30T15:10:31.735Z,14.60
2018-12-30T15:13:06.961Z,9.23
2018-12-30T15:15:39.177Z,8.60
2018-12-30T15:18:14.603Z,6.53
2018-12-30T15:20:47.275Z,10.70
2018-12-30T15:23:18.970Z,13.50
2018-12-30T15:25:54.370Z,15.83
2018-12-30T15:28:28.312Z,14.37
2018-12-30T15:31:01.165Z,6.77
2018-12-30T15:33:33.678Z,10.40
2018-12-30T15:36:05.937Z,8.53
2018-12-30T15:38:39.181Z,6.10
2018-12-30T15:41:12.254Z,11.57
2018-12-30T15:43:46.368Z,7.90
2018-12-30T15:46:18.866Z,8.63
2018-12-30T15:48:50.966Z,9.85
2018-12-30T15:51:24.401Z,5.50
2018-12-30T15:53:58.470Z,8.50
2018-12-30T15:56:31.339Z,23.95
2018-12-30T15:59:07.770Z,54.90
2018-12-30T16:01:39.298Z,10.87
2018-12-30T16:04:16.100Z,8.70
2018-12-30T16:06:51.289Z,14.27
2018-12-30T16:09:28.151Z,7.72
2018-12-30T16:12:00.442Z,8.07
2018-12-30T16:14:32.615Z,8.33
2018-12-30T16:17:04.626Z,13.23
2018-12-30T16:19:38.651Z,46.00
2018-12-30T16:22:12.602Z,22.27
2018-12-30T16:24:46.425Z,31.63
2018-12-30T16:27:18.948Z,13.22
2018-12-30T16:29:51.698Z,22.13
2018-12-30T16:32:25.595Z,13.20
2018-12-30T16:34:58.011Z,13.30
2018-12-30T16:37:30.971Z,11.55
2018-12-30T16:40:04.851Z,12.30
2018-12-30T16:42:38.863Z,13.70
2018-12-30T16:45:12.619Z,9.53
2018-12-30T16:47:48.169Z,9.93
2018-12-30T16:50:19.573Z,15.17
2018-12-30T16:52:52.802Z,14.67
2018-12-30T16:55:24.153Z,8.20
2018-12-30T16:57:57.774Z,9.57
2018-12-30T17:00:30.573Z,6.60
2018-12-30T17:03:02.237Z,5.90
2018-12-30T17:05:36.423Z,9.17
2018-12-30T17:08:09.221Z,9.10
2018-12-30T17:10:41.318Z,6.53
2018-12-30T17:13:13.579Z,6.87
2018-12-30T17:15:46.854Z,9.58
2018-12-30T17:18:19.118Z,9.57
2018-12-30T17:20:53.641Z,12.27
2018-12-30T17:23:26.570Z,10.63
2018-12-30T17:26:00.002Z,17.33
2018-12-30T17:28:31.701Z,10.87
2018-12-30T17:31:12.175Z,9.03
2018-12-30T17:33:43.849Z,13.13
2018-12-30T17:36:17.239Z,22.60
2018-12-30T17:38:51.660Z,17.87
2018-12-30T17:41:24.033Z,15.78
2018-12-30T17:43:58.071Z,15.03
2018-12-30T17:46:29.769Z,11.70
2018-12-30T17:49:01.890Z,16.83
2018-12-30T17:51:36.027Z,14.97
2018-12-30T17:54:15.124Z,8.90
2018-12-30T17:56:42.864Z,12.13
2018-12-30T17:59:17.438Z,12.73
2018-12-30T18:01:49.997Z,16.53
2018-12-30T18:04:25.174Z,14.13
2018-12-30T18:06:57.145Z,20.30
2018-12-30T18:09:31.070Z,26.33
2018-12-30T18:12:04.225Z,9.70
2018-12-30T18:14:38.038Z,13.87
2018-12-30T18:17:10.131Z,14.60
2018-12-30T18:19:42.098Z,15.23
2018-12-30T18:22:16.029Z,13.03
2018-12-30T18:24:47.376Z,17.07
2018-12-30T18:27:19.733Z,16.60
2018-12-30T18:29:52.104Z,18.23
2018-12-30T18:32:29.785Z,19.87
2018-12-30T18:35:02.282Z,16.27
2018-12-30T18:37:35.061Z,16.23
2018-12-30T18:40:07.603Z,15.73
2018-12-30T18:42:41.075Z,20.73
2018-12-30T18:45:13.300Z,11.63
2018-12-30T18:47:45.051Z,13.03
2018-12-30T18:50:18.009Z,20.70
2018-12-30T18:52:49.418Z,13.33
2018-12-30T18:55:22.031Z,16.50
2018-12-30T18:57:55.567Z,23.40
2018-12-30T19:00:27.337Z,29.43
2018-12-30T19:03:01.692Z,16.60
2018-12-30T19:05:34.395Z,15.00
2018-12-30T19:14:44.128Z,17.30
2018-12-30T19:17:16.436Z,20.62
2018-12-30T19:19:50.483Z,24.23
2018-12-30T19:22:22.386Z,14.87
2018-12-30T19:24:55.193Z,13.40
2018-12-30T19:27:30.814Z,17.75
2018-12-30T19:30:08.501Z,14.47
2018-12-30T19:32:50.983Z,20.90
2018-12-30T19:35:26.940Z,17.52
2018-12-30T19:38:09.255Z,19.93
2018-12-30T19:40:59.113Z,18.60
2018-12-30T19:43:33.577Z,23.13
2018-12-30T19:46:07.308Z,13.00
2018-12-30T19:48:43.377Z,11.43
2018-12-30T19:51:21.102Z,15.13
2018-12-30T19:54:01.723Z,13.67
2018-12-30T19:56:36.614Z,15.77
2018-12-30T19:59:13.390Z,15.10
2018-12-30T20:01:47.601Z,25.50
2018-12-30T20:04:19.603Z,21.40
2018-12-30T20:06:51.824Z,21.57
2018-12-30T20:09:26.467Z,18.57
2018-12-30T20:11:58.428Z,15.33
2018-12-30T20:14:31.772Z,20.10
2018-12-30T20:17:04.480Z,28.53
2018-12-30T20:19:40.210Z,16.17
2018-12-30T20:22:13.732Z,20.30
2018-12-30T20:24:46.633Z,16.77
2018-12-30T20:27:19.334Z,26.70
2018-12-30T20:29:51.591Z,20.10
2018-12-30T20:32:26.681Z,20.10
2018-12-30T20:34:58.665Z,20.53
2018-12-30T20:37:35.366Z,22.73
2018-12-30T20:40:07.766Z,22.47
2018-12-30T20:42:40.798Z,23.07
2018-12-30T20:45:16.543Z,25.03
2018-12-30T20:47:48.553Z,18.73
2018-12-30T20:50:23.338Z,18.13
2018-12-30T20:52:55.634Z,20.90
2018-12-30T20:55:30.702Z,21.90
2018-12-30T20:58:03.881Z,18.80
2018-12-30T21:00:38.896Z,23.80
2018-12-30T21:03:15.372Z,24.83
2018-12-30T21:05:53.193Z,23.57
2018-12-30T21:08:27.516Z,19.07
2018-12-30T21:10:59.673Z,16.60
2018-12-30T21:13:31.852Z,21.23
2018-12-30T21:16:04.377Z,16.87
2018-12-30T21:18:40.184Z,23.67
2018-12-30T21:21:15.242Z,28.43
2018-12-30T21:23:48.745Z,16.63
2018-12-30T21:26:21.448Z,17.60
2018-12-30T21:28:59.926Z,16.17
2018-12-30T21:31:28.110Z,14.68
2018-12-30T21:34:03.093Z,18.70
2018-12-30T21:36:44.747Z,19.30
2018-12-30T21:39:16.774Z,19.30
2018-12-30T21:41:52.603Z,18.80
2018-12-30T21:44:27.000Z,17.17
2018-12-30T21:46:59.271Z,17.70
2018-12-30T21:49:36.863Z,12.17
2018-12-30T21:52:08.891Z,10.28
2018-12-30T21:54:43.301Z,13.33
2018-12-30T21:57:16.705Z,13.68
2018-12-30T21:59:50.081Z,11.50
2018-12-30T22:02:24.845Z,14.23
2018-12-30T22:04:56.834Z,16.75
2018-12-30T22:07:29.863Z,12.90
2018-12-30T22:10:03.338Z,16.80
2018-12-30T22:12:35.103Z,13.43
2018-12-30T22:15:07.606Z,13.70
2018-12-30T22:17:40.071Z,18.33
2018-12-30T22:20:19.143Z,16.23
2018-12-30T22:22:53.000Z,13.77
2018-12-30T22:25:29.688Z,17.73
2018-12-30T22:28:02.135Z,11.00
2018-12-30T22:30:36.111Z,16.63
2018-12-30T22:33:08.129Z,19.57
2018-12-30T22:35:43.370Z,22.13
2018-12-30T22:38:16.164Z,13.77
2018-12-30T22:40:49.428Z,17.90
2018-12-30T22:43:23.119Z,13.55
2018-12-30T22:45:58.370Z,10.67
2018-12-30T22:48:29.999Z,12.30
2018-12-30T22:51:01.663Z,14.13
2018-12-30T22:53:37.895Z,17.10
2018-12-30T22:56:16.552Z,14.43
2018-12-30T22:58:49.660Z,14.20
2018-12-30T23:01:27.017Z,13.80
2018-12-30T23:04:01.241Z,14.33
2018-12-30T23:06:33.205Z,14.73
2018-12-30T23:09:06.455Z,14.70
2018-12-30T23:11:40.465Z,24.80
2018-12-30T23:14:13.210Z,18.07
2018-12-30T23:16:47.237Z,21.27
2018-12-30T23:19:21.814Z,18.10
2018-12-30T23:21:56.369Z,15.67
2018-12-30T23:24:28.660Z,16.20
2018-12-30T23:27:05.446Z,20.80
2018-12-30T23:29:39.965Z,20.93
2018-12-30T23:32:14.413Z,20.87
2018-12-30T23:34:45.808Z,21.43
2018-12-30T23:37:17.329Z,28.12
2018-12-30T23:39:54.197Z,22.70
2018-12-30T23:42:28.509Z,21.13
2018-12-30T23:45:01.482Z,22.80
2018-12-30T23:47:38.092Z,18.07
2018-12-30T23:50:17.429Z,18.37
2018-12-30T23:52:49.536Z,22.10
2018-12-30T23:55:25.658Z,22.02
2018-12-30T23:58:01.446Z,24.90
